Terminal Aerodrome Forecast
Issued by NWS

Home | Current Version | Previous Version | Text Only | Print | Product List | Glossary On
Versions: 1 2 3 4 5 6 7 8 9 10 11 12
827
FTUS41 KPHI 241726
TAFPNE
TAF
KPNE 241726Z 2418/2518 14011KT P6SM BKN060
      TEMPO 2423/2502 4SM RA
     FM250200 11010KT 4SM RA OVC025
     FM250600 10008KT 4SM RA OVC009
     FM251000 10010KT 6SM -RA OVC007
     FM251400 09007KT 6SM -RA BKN005
     FM251600 08006KT P6SM BKN006=

USA.gov is the U.S. government's official web portal to all federal, state and local government web resources and services.